LiveATC.Net - Listen to live air traffic control over the Internet! Contact for advertising information

ICAO: PHTO  IATA: ITO   Airport: Hilo International Airport
City: Hilo   State/Province: Hawaii
Country: United States   Continent: North America
PHTO METAR Weather: PHTO 100253Z 06006KT 10SM FEW023 BKN075 28/22 A2999 RMK AO2 SLP153 T02780222 53005
PHTO Flight Activity (FlightAware)
PHTO Airport Info   (AirNav) (iFlightPlanner)
PHTO VFR Sectional Chart   (iFlightPlanner) 
PHTO IFR Low Chart   (iFlightPlanner) 
PHTO Gnd/Twr/App/ZHN
Feed Status: DOWN
Last heard on: 2015-08-24 23:37:03 (46 days 4 hours 4 minutes ago)
PHTO Gnd/Twr/App/ZHN Audio Archives
Hilo Approach119.700
Hilo Ground121.900
Hilo Tower118.100
Honolulu Radio122.600

Feed sponsored by: Iolani Air Tour Company


Unauthorized use prohibited. See Terms of Service

Find LiveATC Audio Streams

Airport/ARTCC Code

(e.g., 124.400, 128.75)
Site-wide search

Browse LiveATC Feeds
LiveATC Coverage Map
Top 50 LiveATC Feeds
Bad Weather Areas

Offer a LiveATC Feed
Press Inquiries

LiveATC on iPhone
LiveATC on Android

Windows Phone
Windows 8/10

LiveATC Mobile
(Mobile browser)

ATC Audio Archives
Interesting Recordings

LiveATC Forums

Home Page
Make a Donation
LiveATC Bookstore

Terms of Use
Privacy Policy

ATC/Radar Sites
U.S. ARTCC Freqs
Canadian Air Freqs


FAA Airport Status
Nat'l Airspace Status
Arrival Demand Charts

Server Software By:

Please make a donation to help us keep growing!